LFRU/MXN METAR and TAF weather

Enter ICAO airport designator
Station Type Date Time Source
LFRU METAR 2021/07/30 08:00 UTC NOAA

LFRU 300800Z AUTO 27018KT 9999 BKN022 BKN029 17/12 Q1010


Station Type Date Time Source
LFRU Decoded METAR 2021/07/30 08:00 UTC NOAA

Morlaix / Ploujean, France (LFRU) 48-36N 003-49W
Jul 30, 2021 - 04:00 AM EDT / 2021.07.30 0800 UTC
Wind: from the W (270 degrees) at 21 MPH (18 KT):0
Visibility: greater than 7 mile(s):0
Sky conditions: mostly cloudy
Temperature: 62 F (17 C)
Dew Point: 53 F (12 C)
Relative Humidity: 72%
Pressure (altimeter): 29.83 in. Hg (1010 hPa)
ob: LFRU 300800Z AUTO 27018KT 9999 BKN022 BKN029 17/12 Q1010
cycle: 8

Station Type Date Time Source
LFRU TAF UTC NOAA

Error!

Example: see airport list